Dobrodošli na spletni strani vremenske postaje Senovo. Vse informacije so informativnega značaja, saj vremenska postaja ni del državne mreže meteoroloških postaj. AKTUALNIH OBVESTIL NI.


Sneg/Led Od: 23-02-2018 00:00 Do: 23:59 Opozorilo za: Sneg/Led Stopnja: Rumena info button

Pogled proti Armezu več informacij Pogled proti Armezu


Lisca več informacij Lisca


Radar strel več informacij blitzortung!


opozorilo za sneg/led več informacij rain snow radar


Obiščite še:

Template documentation
and downloads

And another site



Weather Underground, zgodovina - Tekstovno

Dnevni povzetek za Februar 8, 2018 Enote:  Obe    Angleško   Metrično
« Predhodni Dan
Naslednji Dan »
Dnevni Tedenski Mesečni Letni Po meri
  Višja: Nižja: Povprečje:
Temperatura: TemperatureC °F /  -17.8 °C 0.5 °F /  -17.5 °C 1.8 °F /  -16.8 °C
Točka rosišča: DewpointC °F /  -17.8 °C -0.3 °F /  -17.9 °C 1 °F /  -17.2 °C
Vlažnost: Humidity % 89 % 94 %
Hitrost vetra: WindSpeedKMH mph /  0 km/h - 0 mph /  0 km/h
Sunki vetra: WindSpeedGustKMH mph /  0 km/h - -
Veter:- - SSW
Zračni tlak: PressurehPa in /  0 hPa 1008.0 in /  34130.9 hPa -
Padavine: 3.3 in /  83.82 mm    
Historical Graphs
 
 
Tabelarni podarki za Februar 8, 2018
Čas Temperatura Točka rosišča Zračni tlak Veter Hitrost vetra Sunki vetra Vlažnost Intenziteta padavin (urna)
TemperatureC °F /  -17.8 °C DewpointC °F /  -17.8 °C PressurehPa in /  0 hPa Calm     Humidity % HourlyPrecipMM in /  0 mm
00:03 0.6 °F /  -17.4 °C -0.3 °F /  -17.9 °C 1009.0 in /  34164.7 hPa Calm     94 % 1.0 in /  25.4 mm
00:08 0.6 °F /  -17.4 °C -0.3 °F /  -17.9 °C 1009.0 in /  34164.7 hPa Calm     94 % 1.0 in /  25.4 mm
00:13 0.6 °F /  -17.4 °C -0.3 °F /  -17.9 °C 1009.0 in /  34164.7 hPa Calm     94 % 1.0 in /  25.4 mm
00:18 0.6 °F /  -17.4 °C -0.3 °F /  -17.9 °C 1009.0 in /  34164.7 hPa Calm     94 % 1.0 in /  25.4 mm
00:23 0.6 °F /  -17.4 °C -0.3 °F /  -17.9 °C 1009.0 in /  34164.7 hPa Calm     94 % 1.0 in /  25.4 mm
00:28 0.6 °F /  -17.4 °C -0.1 °F /  -17.8 °C 1009.0 in /  34164.7 hPa Calm     95 % 1.0 in /  25.4 mm
00:33 0.6 °F /  -17.4 °C -0.1 °F /  -17.8 °C 1009.0 in /  34164.7 hPa Calm     95 % 1.0 in /  25.4 mm
00:38 0.6 °F /  -17.4 °C -0.1 °F /  -17.8 °C 1009.0 in /  34164.7 hPa Calm     95 % 1.0 in /  25.4 mm
00:43 0.6 °F /  -17.4 °C -0.1 °F /  -17.8 °C 1009.0 in /  34164.7 hPa Calm     95 % 1.0 in /  25.4 mm
00:48 0.6 °F /  -17.4 °C -0.1 °F /  -17.8 °C 1009.0 in /  34164.7 hPa Calm     95 % 1.0 in /  25.4 mm
00:53 0.6 °F /  -17.4 °C -0.1 °F /  -17.8 °C 1009.0 in /  34164.7 hPa Calm     95 % 1.0 in /  25.4 mm
00:58 0.6 °F /  -17.4 °C -0.1 °F /  -17.8 °C 1009.0 in /  34164.7 hPa Calm     95 % 1.0 in /  25.4 mm
01:03 0.6 °F /  -17.4 °C -0.1 °F /  -17.8 °C 1009.0 in /  34164.7 hPa Calm     95 % 1.0 in /  25.4 mm
01:08 0.6 °F /  -17.4 °C -0.1 °F /  -17.8 °C 1009.0 in /  34164.7 hPa Calm     95 % 0.8 in /  20.32 mm
01:13 0.6 °F /  -17.4 °C -0.1 °F /  -17.8 °C 1009.0 in /  34164.7 hPa Calm     95 % 0.8 in /  20.32 mm
01:18 0.6 °F /  -17.4 °C -0.1 °F /  -17.8 °C 1009.0 in /  34164.7 hPa Calm     95 % 0.8 in /  20.32 mm
01:23 0.6 °F /  -17.4 °C -0.1 °F /  -17.8 °C 1009.0 in /  34164.7 hPa Calm     95 % 0.8 in /  20.32 mm
01:28 0.6 °F /  -17.4 °C -0.1 °F /  -17.8 °C 1009.0 in /  34164.7 hPa Calm     95 % 0.8 in /  20.32 mm
01:33 0.6 °F /  -17.4 °C -0.1 °F /  -17.8 °C 1009.0 in /  34164.7 hPa Calm     95 % 0.8 in /  20.32 mm
01:38 0.6 °F /  -17.4 °C -0.1 °F /  -17.8 °C 1009.0 in /  34164.7 hPa Calm     95 % 0.8 in /  20.32 mm
01:43 0.6 °F /  -17.4 °C -0.1 °F /  -17.8 °C 1009.0 in /  34164.7 hPa Calm     95 % 0.8 in /  20.32 mm
01:48 0.6 °F /  -17.4 °C -0.1 °F /  -17.8 °C 1009.0 in /  34164.7 hPa Calm     95 % 0.5 in /  12.7 mm
01:53 0.6 °F /  -17.4 °C -0.1 °F /  -17.8 °C 1009.0 in /  34164.7 hPa Calm     95 % 0.8 in /  20.32 mm
01:58 0.6 °F /  -17.4 °C -0.1 °F /  -17.8 °C 1009.0 in /  34164.7 hPa Calm     95 % 0.5 in /  12.7 mm
02:03 0.6 °F /  -17.4 °C -0.1 °F /  -17.8 °C 1009.0 in /  34164.7 hPa Calm     95 % 0.5 in /  12.7 mm
02:08 0.6 °F /  -17.4 °C -0.1 °F /  -17.8 °C 1009.0 in /  34164.7 hPa Calm     95 % 0.5 in /  12.7 mm
02:13 0.6 °F /  -17.4 °C -0.1 °F /  -17.8 °C 1009.0 in /  34164.7 hPa Calm     95 % 0.3 in /  7.62 mm
02:18 0.6 °F /  -17.4 °C -0.1 °F /  -17.8 °C 1009.0 in /  34164.7 hPa Calm     95 % 0.3 in /  7.62 mm
02:23 0.6 °F /  -17.4 °C -0.1 °F /  -17.8 °C 1009.0 in /  34164.7 hPa Calm     95 % 0.3 in /  7.62 mm
02:28 0.5 °F /  -17.5 °C -0.2 °F /  -17.9 °C 1009.0 in /  34164.7 hPa Calm     95 % 0.3 in /  7.62 mm
02:33 0.5 °F /  -17.5 °C -0.2 °F /  -17.9 °C 1009.0 in /  34164.7 hPa Calm     95 % 0.3 in /  7.62 mm
02:38 0.5 °F /  -17.5 °C -0.2 °F /  -17.9 °C 1009.0 in /  34164.7 hPa Calm     95 % 0.3 in /  7.62 mm
02:43 0.5 °F /  -17.5 °C -0.2 °F /  -17.9 °C 1009.0 in /  34164.7 hPa Calm     95 % 0.3 in /  7.62 mm
02:48 0.5 °F /  -17.5 °C -0.2 °F /  -17.9 °C 1009.0 in /  34164.7 hPa Calm     95 % 0.3 in /  7.62 mm
02:53 0.5 °F /  -17.5 °C -0.2 °F /  -17.9 °C 1009.0 in /  34164.7 hPa Calm     95 % 0.3 in /  7.62 mm
02:58 0.6 °F /  -17.4 °C -0.1 °F /  -17.8 °C 1010.0 in /  34198.6 hPa Calm     95 % 0.3 in /  7.62 mm
03:03 0.6 °F /  -17.4 °C -0.1 °F /  -17.8 °C 1010.0 in /  34198.6 hPa Calm     95 % 0.3 in /  7.62 mm
03:08 0.6 °F /  -17.4 °C -0.1 °F /  -17.8 °C 1010.0 in /  34198.6 hPa Calm     95 % 0.3 in /  7.62 mm
03:13 0.6 °F /  -17.4 °C -0.1 °F /  -17.8 °C 1009.0 in /  34164.7 hPa Calm     95 % 0.3 in /  7.62 mm
03:18 0.6 °F /  -17.4 °C -0.1 °F /  -17.8 °C 1009.0 in /  34164.7 hPa Calm     95 % 0.3 in /  7.62 mm
03:23 0.6 °F /  -17.4 °C -0.1 °F /  -17.8 °C 1009.0 in /  34164.7 hPa Calm     95 % 0.3 in /  7.62 mm
03:28 0.6 °F /  -17.4 °C -0.1 °F /  -17.8 °C 1009.0 in /  34164.7 hPa Calm     95 % 0.3 in /  7.62 mm
03:33 0.6 °F /  -17.4 °C -0.1 °F /  -17.8 °C 1009.0 in /  34164.7 hPa Calm     95 % 0.3 in /  7.62 mm
03:38 0.6 °F /  -17.4 °C 0.1 °F /  -17.7 °C 1009.0 in /  34164.7 hPa Calm     96 % 0.3 in /  7.62 mm
03:43 0.6 °F /  -17.4 °C 0.1 °F /  -17.7 °C 1010.0 in /  34198.6 hPa Calm     96 % 0.3 in /  7.62 mm
03:48 0.6 °F /  -17.4 °C 0.1 °F /  -17.7 °C 1010.0 in /  34198.6 hPa Calm     96 % 0.3 in /  7.62 mm
03:53 0.6 °F /  -17.4 °C 0.1 °F /  -17.7 °C 1010.0 in /  34198.6 hPa Calm     96 % 0.3 in /  7.62 mm
03:58 0.6 °F /  -17.4 °C 0.1 °F /  -17.7 °C 1009.0 in /  34164.7 hPa Calm     96 % 0.3 in /  7.62 mm
04:04 0.6 °F /  -17.4 °C 0.1 °F /  -17.7 °C 1009.0 in /  34164.7 hPa Calm     96 % 0.3 in /  7.62 mm
04:09 0.6 °F /  -17.4 °C 0.1 °F /  -17.7 °C 1009.0 in /  34164.7 hPa Calm     96 % 0.3 in /  7.62 mm
04:14 0.6 °F /  -17.4 °C 0.1 °F /  -17.7 °C 1008.0 in /  34130.9 hPa Calm     96 % 0.3 in /  7.62 mm
04:19 0.6 °F /  -17.4 °C 0.1 °F /  -17.7 °C 1008.0 in /  34130.9 hPa Calm     96 % 0.3 in /  7.62 mm
04:24 0.6 °F /  -17.4 °C 0.1 °F /  -17.7 °C 1008.0 in /  34130.9 hPa Calm     96 % 0.0 in /  0 mm
04:29 0.6 °F /  -17.4 °C 0.1 °F /  -17.7 °C 1009.0 in /  34164.7 hPa Calm     96 % 0.0 in /  0 mm
04:34 0.6 °F /  -17.4 °C 0.1 °F /  -17.7 °C 1009.0 in /  34164.7 hPa Calm     96 % 0.3 in /  7.62 mm
04:39 0.6 °F /  -17.4 °C 0.1 °F /  -17.7 °C 1009.0 in /  34164.7 hPa Calm     96 % 0.3 in /  7.62 mm
04:44 0.6 °F /  -17.4 °C 0.1 °F /  -17.7 °C 1009.0 in /  34164.7 hPa Calm     96 % 0.3 in /  7.62 mm
04:49 0.6 °F /  -17.4 °C 0.1 °F /  -17.7 °C 1009.0 in /  34164.7 hPa Calm     96 % 0.3 in /  7.62 mm
04:54 0.6 °F /  -17.4 °C 0.1 °F /  -17.7 °C 1009.0 in /  34164.7 hPa Calm     96 % 0.3 in /  7.62 mm
04:59 0.6 °F /  -17.4 °C 0.1 °F /  -17.7 °C 1009.0 in /  34164.7 hPa Calm     96 % 0.5 in /  12.7 mm
05:04 0.6 °F /  -17.4 °C 0.1 °F /  -17.7 °C 1009.0 in /  34164.7 hPa Calm     96 % 0.5 in /  12.7 mm
05:09 0.6 °F /  -17.4 °C 0.1 °F /  -17.7 °C 1009.0 in /  34164.7 hPa Calm     96 % 0.5 in /  12.7 mm
05:14 0.6 °F /  -17.4 °C 0.1 °F /  -17.7 °C 1009.0 in /  34164.7 hPa Calm     96 % 0.8 in /  20.32 mm
05:19 0.6 °F /  -17.4 °C 0.1 °F /  -17.7 °C 1009.0 in /  34164.7 hPa Calm     96 % 0.8 in /  20.32 mm
05:24 0.6 °F /  -17.4 °C 0.1 °F /  -17.7 °C 1009.0 in /  34164.7 hPa Calm     96 % 0.8 in /  20.32 mm
05:29 0.6 °F /  -17.4 °C 0.1 °F /  -17.7 °C 1009.0 in /  34164.7 hPa Calm     96 % 0.8 in /  20.32 mm
05:34 0.6 °F /  -17.4 °C 0.1 °F /  -17.7 °C 1009.0 in /  34164.7 hPa Calm     96 % 0.5 in /  12.7 mm
05:39 0.6 °F /  -17.4 °C 0.1 °F /  -17.7 °C 1010.0 in /  34198.6 hPa Calm     96 % 0.5 in /  12.7 mm
05:44 0.6 °F /  -17.4 °C 0.1 °F /  -17.7 °C 1010.0 in /  34198.6 hPa Calm     96 % 0.5 in /  12.7 mm
05:49 0.6 °F /  -17.4 °C 0.1 °F /  -17.7 °C 1010.0 in /  34198.6 hPa Calm     96 % 0.5 in /  12.7 mm
05:54 0.6 °F /  -17.4 °C 0.1 °F /  -17.7 °C 1010.0 in /  34198.6 hPa Calm     96 % 0.5 in /  12.7 mm
05:59 0.6 °F /  -17.4 °C 0.1 °F /  -17.7 °C 1010.0 in /  34198.6 hPa Calm     96 % 0.5 in /  12.7 mm
06:04 0.6 °F /  -17.4 °C 0.1 °F /  -17.7 °C 1010.0 in /  34198.6 hPa Calm     96 % 0.5 in /  12.7 mm
06:09 0.6 °F /  -17.4 °C 0.1 °F /  -17.7 °C 1010.0 in /  34198.6 hPa Calm     96 % 0.5 in /  12.7 mm
06:14 0.6 °F /  -17.4 °C 0.1 °F /  -17.7 °C 1010.0 in /  34198.6 hPa Calm     96 % 0.5 in /  12.7 mm
06:19 0.6 °F /  -17.4 °C 0.1 °F /  -17.7 °C 1010.0 in /  34198.6 hPa Calm     96 % 0.5 in /  12.7 mm
06:24 0.6 °F /  -17.4 °C 0.1 °F /  -17.7 °C 1011.1 in /  34235.8 hPa Calm     96 % 0.8 in /  20.32 mm
06:29 0.6 °F /  -17.4 °C 0.1 °F /  -17.7 °C 1011.1 in /  34235.8 hPa Calm     96 % 0.8 in /  20.32 mm
06:34 0.6 °F /  -17.4 °C 0.1 °F /  -17.7 °C 1011.1 in /  34235.8 hPa Calm     96 % 0.8 in /  20.32 mm
06:39 0.6 °F /  -17.4 °C 0.1 °F /  -17.7 °C 1011.1 in /  34235.8 hPa Calm     96 % 0.5 in /  12.7 mm
06:44 0.6 °F /  -17.4 °C 0.1 °F /  -17.7 °C 1011.1 in /  34235.8 hPa Calm     96 % 0.5 in /  12.7 mm
06:49 0.6 °F /  -17.4 °C 0.1 °F /  -17.7 °C 1011.1 in /  34235.8 hPa Calm     96 % 0.8 in /  20.32 mm
06:54 0.6 °F /  -17.4 °C 0.1 °F /  -17.7 °C 1011.1 in /  34235.8 hPa Calm     96 % 0.5 in /  12.7 mm
06:59 0.6 °F /  -17.4 °C 0.1 °F /  -17.7 °C 1011.1 in /  34235.8 hPa Calm     96 % 0.5 in /  12.7 mm
07:04 0.6 °F /  -17.4 °C 0.1 °F /  -17.7 °C 1011.1 in /  34235.8 hPa Calm   1.4 mph /  2.3 km/h 96 % 0.3 in /  7.62 mm
07:09 0.6 °F /  -17.4 °C 0.1 °F /  -17.7 °C 1011.1 in /  34235.8 hPa Calm   1.4 mph /  2.3 km/h 96 % 0.3 in /  7.62 mm
07:14 0.6 °F /  -17.4 °C 0.1 °F /  -17.7 °C 1011.1 in /  34235.8 hPa Calm     96 % 0.5 in /  12.7 mm
07:19 0.6 °F /  -17.4 °C 0.1 °F /  -17.7 °C 1011.1 in /  34235.8 hPa Calm     96 % 0.5 in /  12.7 mm
07:24 0.6 °F /  -17.4 °C 0.1 °F /  -17.7 °C 1010.0 in /  34198.6 hPa Calm     96 % 0.3 in /  7.62 mm
07:29 0.7 °F /  -17.4 °C 0.1 °F /  -17.7 °C 1010.0 in /  34198.6 hPa Calm     96 % 0.3 in /  7.62 mm
07:34 0.7 °F /  -17.4 °C 0.1 °F /  -17.7 °C 1010.0 in /  34198.6 hPa Calm     96 % 0.3 in /  7.62 mm
07:39 0.7 °F /  -17.4 °C 0.1 °F /  -17.7 °C 1011.1 in /  34235.8 hPa Calm     96 % 0.3 in /  7.62 mm
07:44 0.7 °F /  -17.4 °C 0.1 °F /  -17.7 °C 1011.1 in /  34235.8 hPa Calm     96 % 0.3 in /  7.62 mm
07:49 0.7 °F /  -17.4 °C 0.1 °F /  -17.7 °C 1011.1 in /  34235.8 hPa Calm     96 % 0.3 in /  7.62 mm
07:54 0.7 °F /  -17.4 °C 0.1 °F /  -17.7 °C 1011.1 in /  34235.8 hPa Calm     96 % 0.3 in /  7.62 mm
07:59 0.7 °F /  -17.4 °C 0.1 °F /  -17.7 °C 1011.1 in /  34235.8 hPa Calm     96 % 0.3 in /  7.62 mm
08:04 0.7 °F /  -17.4 °C 0.1 °F /  -17.7 °C 1011.1 in /  34235.8 hPa Calm     96 % 0.3 in /  7.62 mm
08:09 0.8 °F /  -17.3 °C 0.2 °F /  -17.7 °C 1012.1 in /  34269.7 hPa Calm     96 % 0.3 in /  7.62 mm
08:14 0.8 °F /  -17.3 °C 0.4 °F /  -17.6 °C 1012.1 in /  34269.7 hPa Calm     97 % 0.0 in /  0 mm
08:19 0.9 °F /  -17.3 °C 0.5 °F /  -17.5 °C 1012.1 in /  34269.7 hPa Calm     97 % 0.0 in /  0 mm
08:24 0.9 °F /  -17.3 °C 0.5 °F /  -17.5 °C 1012.1 in /  34269.7 hPa Calm     97 % 0.0 in /  0 mm
08:29 1.0 °F /  -17.2 °C 0.4 °F /  -17.6 °C 1012.1 in /  34269.7 hPa Calm     96 % 0.0 in /  0 mm
08:34 1.0 °F /  -17.2 °C 0.4 °F /  -17.6 °C 1012.1 in /  34269.7 hPa Calm     96 % 0.0 in /  0 mm
08:39 1.0 °F /  -17.2 °C 0.4 °F /  -17.6 °C 1012.1 in /  34269.7 hPa Calm     96 % 0.0 in /  0 mm
08:44 1.1 °F /  -17.2 °C 0.6 °F /  -17.4 °C 1012.1 in /  34269.7 hPa Calm     96 % 0.0 in /  0 mm
08:49 1.1 °F /  -17.2 °C 0.6 °F /  -17.4 °C 1012.1 in /  34269.7 hPa Calm     96 % 0.0 in /  0 mm
08:54 1.1 °F /  -17.2 °C 0.6 °F /  -17.4 °C 1012.1 in /  34269.7 hPa Calm     96 % 0.0 in /  0 mm
08:59 1.2 °F /  -17.1 °C 0.6 °F /  -17.4 °C 1012.1 in /  34269.7 hPa Calm     96 % 0.0 in /  0 mm
09:04 1.2 °F /  -17.1 °C 0.6 °F /  -17.4 °C 1012.1 in /  34269.7 hPa Calm     96 % 0.0 in /  0 mm
09:09 1.3 °F /  -17.1 °C 0.9 °F /  -17.3 °C 1012.1 in /  34269.7 hPa Calm     97 % 0.0 in /  0 mm
09:14 1.3 °F /  -17.1 °C 0.9 °F /  -17.3 °C 1012.1 in /  34269.7 hPa Calm     97 % 0.0 in /  0 mm
09:19 1.3 °F /  -17.1 °C 0.9 °F /  -17.3 °C 1012.1 in /  34269.7 hPa Calm     97 % 0.0 in /  0 mm
09:24 1.3 °F /  -17.1 °C 0.9 °F /  -17.3 °C 1012.1 in /  34269.7 hPa Calm     97 % 0.0 in /  0 mm
09:29 1.4 °F /  -17 °C 1.0 °F /  -17.2 °C 1012.1 in /  34269.7 hPa Calm     97 % 0.0 in /  0 mm
09:34 1.4 °F /  -17 °C 1.0 °F /  -17.2 °C 1012.1 in /  34269.7 hPa Calm     97 % 0.0 in /  0 mm
09:39 1.5 °F /  -16.9 °C 1.1 °F /  -17.2 °C 1012.1 in /  34269.7 hPa Calm     97 % 0.0 in /  0 mm
09:44 1.7 °F /  -16.8 °C 1.3 °F /  -17.1 °C 1012.1 in /  34269.7 hPa Calm     97 % 0.0 in /  0 mm
09:49 1.8 °F /  -16.8 °C 1.4 °F /  -17 °C 1012.1 in /  34269.7 hPa Calm     97 % 0.0 in /  0 mm
09:54 1.9 °F /  -16.7 °C 1.5 °F /  -16.9 °C 1013.1 in /  34303.6 hPa Calm     97 % 0.0 in /  0 mm
09:59 1.9 °F /  -16.7 °C 1.5 °F /  -16.9 °C 1013.1 in /  34303.6 hPa Calm     97 % 0.0 in /  0 mm
10:04 2.0 °F /  -16.7 °C 1.6 °F /  -16.9 °C 1013.1 in /  34303.6 hPa Calm     97 % 0.0 in /  0 mm
10:09 2.2 °F /  -16.6 °C 1.8 °F /  -16.8 °C 1013.1 in /  34303.6 hPa Calm     97 % 0.0 in /  0 mm
10:14 2.4 °F /  -16.4 °C 2.0 °F /  -16.7 °C 1013.1 in /  34303.6 hPa Calm     97 % 0.0 in /  0 mm
10:19 2.6 °F /  -16.3 °C 2.2 °F /  -16.6 °C 1013.1 in /  34303.6 hPa Calm     97 % 0.0 in /  0 mm
10:24 2.7 °F /  -16.3 °C 2.3 °F /  -16.5 °C 1013.1 in /  34303.6 hPa Calm     97 % 0.0 in /  0 mm
10:25 2.7 °F /  -16.3 °C 2.3 °F /  -16.5 °C 1013.1 in /  34303.6 hPa Calm     97 % 0.0 in /  0 mm
10:30 2.8 °F /  -16.2 °C 2.4 °F /  -16.4 °C 1013.1 in /  34303.6 hPa Calm     97 % 0.0 in /  0 mm
10:35 2.9 °F /  -16.2 °C 2.4 °F /  -16.4 °C 1013.1 in /  34303.6 hPa Calm     97 % 0.0 in /  0 mm
10:40 2.9 °F /  -16.2 °C 2.4 °F /  -16.4 °C 1013.1 in /  34303.6 hPa Calm   2.6 mph /  4.2 km/h 97 % 0.0 in /  0 mm
10:45 2.9 °F /  -16.2 °C 2.4 °F /  -16.4 °C 1013.1 in /  34303.6 hPa Calm   2.6 mph /  4.2 km/h 97 % 0.0 in /  0 mm
10:50 2.9 °F /  -16.2 °C 2.4 °F /  -16.4 °C 1013.1 in /  34303.6 hPa South 0.2 mph /  0.3 km/h 2.1 mph /  3.4 km/h 97 % 0.0 in /  0 mm
10:55 3.0 °F /  -16.1 °C 2.4 °F /  -16.4 °C 1012.1 in /  34269.7 hPa South 0.2 mph /  0.3 km/h 2.1 mph /  3.4 km/h 96 % 0.0 in /  0 mm
11:00 3.1 °F /  -16.1 °C 2.5 °F /  -16.4 °C 1012.1 in /  34269.7 hPa Calm     96 % 0.0 in /  0 mm
11:05 3.2 °F /  -16 °C 2.6 °F /  -16.3 °C 1012.1 in /  34269.7 hPa Calm     96 % 0.0 in /  0 mm
11:10 3.4 °F /  -15.9 °C 2.8 °F /  -16.2 °C 1013.1 in /  34303.6 hPa Calm     96 % 0.0 in /  0 mm
11:15 3.5 °F /  -15.8 °C 3.1 °F /  -16.1 °C 1013.1 in /  34303.6 hPa Calm     97 % 0.0 in /  0 mm
11:20 3.8 °F /  -15.7 °C 3.4 °F /  -15.9 °C 1013.1 in /  34303.6 hPa Calm     97 % 0.0 in /  0 mm
11:25 3.9 °F /  -15.6 °C 3.4 °F /  -15.9 °C 1012.1 in /  34269.7 hPa Calm     97 % 0.0 in /  0 mm
11:30 3.9 °F /  -15.6 °C 3.4 °F /  -15.9 °C 1012.1 in /  34269.7 hPa Calm     97 % 0.0 in /  0 mm
11:35 4.1 °F /  -15.5 °C 3.5 °F /  -15.8 °C 1012.1 in /  34269.7 hPa Calm     96 % 0.0 in /  0 mm
11:40 4.1 °F /  -15.5 °C 3.5 °F /  -15.8 °C 1012.1 in /  34269.7 hPa Calm     96 % 0.0 in /  0 mm
11:45 4.0 °F /  -15.6 °C 3.4 °F /  -15.9 °C 1012.1 in /  34269.7 hPa Calm     96 % 0.0 in /  0 mm
11:50 4.0 °F /  -15.6 °C 3.4 °F /  -15.9 °C 1012.1 in /  34269.7 hPa Calm     96 % 0.0 in /  0 mm
11:55 4.1 °F /  -15.5 °C 3.5 °F /  -15.8 °C 1013.1 in /  34303.6 hPa Calm     96 % 0.0 in /  0 mm
12:00 4.4 °F /  -15.3 °C 3.8 °F /  -15.7 °C 1013.1 in /  34303.6 hPa Calm     96 % 0.0 in /  0 mm
12:05 4.5 °F /  -15.3 °C 3.9 °F /  -15.6 °C 1013.1 in /  34303.6 hPa Calm     96 % 0.0 in /  0 mm
12:10 4.5 °F /  -15.3 °C 3.9 °F /  -15.6 °C 1012.1 in /  34269.7 hPa Calm     96 % 0.0 in /  0 mm
12:15 4.4 °F /  -15.3 °C 3.8 °F /  -15.7 °C 1012.1 in /  34269.7 hPa Calm     96 % 0.0 in /  0 mm
12:20 4.4 °F /  -15.3 °C 3.7 °F /  -15.7 °C 1012.1 in /  34269.7 hPa Calm     95 % 0.0 in /  0 mm
12:25 4.5 °F /  -15.3 °C 3.8 °F /  -15.7 °C 1012.1 in /  34269.7 hPa Calm     95 % 0.0 in /  0 mm
12:30 4.4 °F /  -15.3 °C 3.7 °F /  -15.7 °C 1012.1 in /  34269.7 hPa Calm     95 % 0.0 in /  0 mm
12:35 4.4 °F /  -15.3 °C 3.7 °F /  -15.7 °C 1012.1 in /  34269.7 hPa Calm     95 % 0.0 in /  0 mm
12:40 4.4 °F /  -15.3 °C 3.7 °F /  -15.7 °C 1013.1 in /  34303.6 hPa Calm     95 % 0.0 in /  0 mm
12:45 4.4 °F /  -15.3 °C 3.7 °F /  -15.7 °C 1013.1 in /  34303.6 hPa Calm     95 % 0.0 in /  0 mm
12:50 4.3 °F /  -15.4 °C 3.4 °F /  -15.9 °C 1013.1 in /  34303.6 hPa Calm     94 % 0.0 in /  0 mm
12:55 4.4 °F /  -15.3 °C 3.5 °F /  -15.8 °C 1013.1 in /  34303.6 hPa Calm     94 % 0.0 in /  0 mm
13:00 4.5 °F /  -15.3 °C 3.6 °F /  -15.8 °C 1013.1 in /  34303.6 hPa Calm     94 % 0.0 in /  0 mm
13:05 4.6 °F /  -15.2 °C 3.7 °F /  -15.7 °C 1013.1 in /  34303.6 hPa Calm     94 % 0.0 in /  0 mm
13:10 4.6 °F /  -15.2 °C 3.7 °F /  -15.7 °C 1013.1 in /  34303.6 hPa Calm     94 % 0.0 in /  0 mm
13:15 4.7 °F /  -15.2 °C 3.8 °F /  -15.7 °C 1013.1 in /  34303.6 hPa Calm     94 % 0.0 in /  0 mm
13:20 4.7 °F /  -15.2 °C 3.8 °F /  -15.7 °C 1013.1 in /  34303.6 hPa Calm     94 % 0.0 in /  0 mm
13:25 4.8 °F /  -15.1 °C 3.8 °F /  -15.7 °C 1012.1 in /  34269.7 hPa Calm     93 % 0.0 in /  0 mm
13:30 4.7 °F /  -15.2 °C 3.7 °F /  -15.7 °C 1012.1 in /  34269.7 hPa Calm     93 % 0.0 in /  0 mm
13:35 4.7 °F /  -15.2 °C 3.7 °F /  -15.7 °C 1012.1 in /  34269.7 hPa Calm     93 % 0.0 in /  0 mm
13:40 4.8 °F /  -15.1 °C 3.8 °F /  -15.7 °C 1012.1 in /  34269.7 hPa Calm     93 % 0.0 in /  0 mm
13:45 4.8 °F /  -15.1 °C 3.8 °F /  -15.7 °C 1012.1 in /  34269.7 hPa Calm     93 % 0.0 in /  0 mm
13:50 4.7 °F /  -15.2 °C 3.7 °F /  -15.7 °C 1012.1 in /  34269.7 hPa Calm     93 % 0.0 in /  0 mm
13:55 4.7 °F /  -15.2 °C 3.5 °F /  -15.8 °C 1012.1 in /  34269.7 hPa Calm     92 % 0.0 in /  0 mm
14:00 4.6 °F /  -15.2 °C 3.4 °F /  -15.9 °C 1012.1 in /  34269.7 hPa Calm     92 % 0.0 in /  0 mm
14:05 4.6 °F /  -15.2 °C 3.4 °F /  -15.9 °C 1012.1 in /  34269.7 hPa Calm     92 % 0.0 in /  0 mm
14:10 4.6 °F /  -15.2 °C 3.4 °F /  -15.9 °C 1013.1 in /  34303.6 hPa Calm     92 % 0.0 in /  0 mm
14:15 4.6 °F /  -15.2 °C 3.3 °F /  -15.9 °C 1013.1 in /  34303.6 hPa Calm     91 % 0.0 in /  0 mm
14:20 4.6 °F /  -15.2 °C 3.3 °F /  -15.9 °C 1013.1 in /  34303.6 hPa Calm     91 % 0.0 in /  0 mm
14:25 4.5 °F /  -15.3 °C 3.2 °F /  -16 °C 1012.1 in /  34269.7 hPa Calm     91 % 0.0 in /  0 mm
14:30 4.5 °F /  -15.3 °C 3.2 °F /  -16 °C 1012.1 in /  34269.7 hPa Calm     91 % 0.0 in /  0 mm
14:35 4.5 °F /  -15.3 °C 3.2 °F /  -16 °C 1012.1 in /  34269.7 hPa Calm     91 % 0.0 in /  0 mm
14:40 4.4 °F /  -15.3 °C 3.1 °F /  -16.1 °C 1012.1 in /  34269.7 hPa Calm     91 % 0.0 in /  0 mm
14:45 4.3 °F /  -15.4 °C 2.8 °F /  -16.2 °C 1012.1 in /  34269.7 hPa Calm     90 % 0.0 in /  0 mm
14:50 4.2 °F /  -15.4 °C 2.7 °F /  -16.3 °C 1012.1 in /  34269.7 hPa Calm     90 % 0.0 in /  0 mm
14:55 4.1 °F /  -15.5 °C 2.6 °F /  -16.3 °C 1013.1 in /  34303.6 hPa Calm     90 % 0.0 in /  0 mm
15:00 4.1 °F /  -15.5 °C 2.6 °F /  -16.3 °C 1013.1 in /  34303.6 hPa Calm     90 % 0.0 in /  0 mm
15:05 4.0 °F /  -15.6 °C 2.5 °F /  -16.4 °C 1013.1 in /  34303.6 hPa Calm     90 % 0.0 in /  0 mm
15:10 4.0 °F /  -15.6 °C 2.5 °F /  -16.4 °C 1013.1 in /  34303.6 hPa Calm     90 % 0.0 in /  0 mm
15:15 3.9 °F /  -15.6 °C 2.4 °F /  -16.4 °C 1013.1 in /  34303.6 hPa Calm     90 % 0.0 in /  0 mm
15:20 3.9 °F /  -15.6 °C 2.4 °F /  -16.4 °C 1013.1 in /  34303.6 hPa Calm     90 % 0.0 in /  0 mm
15:25 3.8 °F /  -15.7 °C 2.3 °F /  -16.5 °C 1013.1 in /  34303.6 hPa Calm     90 % 0.0 in /  0 mm
15:30 3.7 °F /  -15.7 °C 2.2 °F /  -16.6 °C 1013.1 in /  34303.6 hPa Calm     90 % 0.0 in /  0 mm
15:35 3.6 °F /  -15.8 °C 2.1 °F /  -16.6 °C 1013.1 in /  34303.6 hPa Calm     90 % 0.0 in /  0 mm
15:40 3.6 °F /  -15.8 °C 2.1 °F /  -16.6 °C 1013.1 in /  34303.6 hPa Calm     90 % 0.0 in /  0 mm
15:45 3.6 °F /  -15.8 °C 2.1 °F /  -16.6 °C 1013.1 in /  34303.6 hPa Calm     90 % 0.0 in /  0 mm
15:50 3.5 °F /  -15.8 °C 2.0 °F /  -16.7 °C 1013.1 in /  34303.6 hPa Calm     90 % 0.0 in /  0 mm
15:55 3.4 °F /  -15.9 °C 1.9 °F /  -16.7 °C 1013.1 in /  34303.6 hPa Calm     90 % 0.0 in /  0 mm
16:00 3.3 °F /  -15.9 °C 1.8 °F /  -16.8 °C 1013.1 in /  34303.6 hPa Calm     90 % 0.0 in /  0 mm
16:05 3.3 °F /  -15.9 °C 1.8 °F /  -16.8 °C 1013.1 in /  34303.6 hPa Calm     90 % 0.0 in /  0 mm
16:10 3.2 °F /  -16 °C 1.7 °F /  -16.8 °C 1014.1 in /  34337.4 hPa Calm     90 % 0.0 in /  0 mm
16:15 3.1 °F /  -16.1 °C 1.4 °F /  -17 °C 1014.1 in /  34337.4 hPa Calm     89 % 0.0 in /  0 mm
16:20 3.0 °F /  -16.1 °C 1.4 °F /  -17 °C 1014.1 in /  34337.4 hPa Calm     89 % 0.0 in /  0 mm
16:25 3.0 °F /  -16.1 °C 1.4 °F /  -17 °C 1014.1 in /  34337.4 hPa Calm     89 % 0.0 in /  0 mm
16:30 2.9 °F /  -16.2 °C 1.4 °F /  -17 °C 1014.1 in /  34337.4 hPa Calm     90 % 0.0 in /  0 mm
16:35 2.8 °F /  -16.2 °C 1.3 °F /  -17.1 °C 1014.1 in /  34337.4 hPa Calm     90 % 0.0 in /  0 mm
16:40 2.7 °F /  -16.3 °C 1.2 °F /  -17.1 °C 1014.1 in /  34337.4 hPa Calm     90 % 0.0 in /  0 mm
16:45 2.6 °F /  -16.3 °C 1.1 °F /  -17.2 °C 1014.1 in /  34337.4 hPa Calm     90 % 0.0 in /  0 mm
16:50 2.6 °F /  -16.3 °C 1.1 °F /  -17.2 °C 1014.1 in /  34337.4 hPa Calm     90 % 0.0 in /  0 mm
16:55 2.5 °F /  -16.4 °C 1.0 °F /  -17.2 °C 1015.1 in /  34371.3 hPa Calm     90 % 0.0 in /  0 mm
17:00 2.4 °F /  -16.4 °C 0.9 °F /  -17.3 °C 1015.1 in /  34371.3 hPa Calm     90 % 0.0 in /  0 mm
17:05 2.3 °F /  -16.5 °C 0.8 °F /  -17.3 °C 1015.1 in /  34371.3 hPa Calm     90 % 0.0 in /  0 mm
17:10 2.3 °F /  -16.5 °C 0.8 °F /  -17.3 °C 1015.1 in /  34371.3 hPa Calm     90 % 0.0 in /  0 mm
17:15 2.2 °F /  -16.6 °C 0.7 °F /  -17.4 °C 1015.1 in /  34371.3 hPa Calm     90 % 0.0 in /  0 mm
17:20 2.2 °F /  -16.6 °C 0.7 °F /  -17.4 °C 1015.1 in /  34371.3 hPa Calm     90 % 0.0 in /  0 mm
17:25 2.1 °F /  -16.6 °C 0.6 °F /  -17.4 °C 1015.1 in /  34371.3 hPa Calm     90 % 0.0 in /  0 mm
17:30 2.0 °F /  -16.7 °C 0.6 °F /  -17.4 °C 1015.1 in /  34371.3 hPa Calm     90 % 0.0 in /  0 mm
17:35 2.0 °F /  -16.7 °C 0.6 °F /  -17.4 °C 1015.1 in /  34371.3 hPa Calm     90 % 0.0 in /  0 mm
17:40 1.9 °F /  -16.7 °C 0.6 °F /  -17.4 °C 1015.1 in /  34371.3 hPa Calm     91 % 0.0 in /  0 mm
17:45 1.9 °F /  -16.7 °C 0.6 °F /  -17.4 °C 1015.1 in /  34371.3 hPa Calm     91 % 0.0 in /  0 mm
17:50 1.9 °F /  -16.7 °C 0.6 °F /  -17.4 °C 1015.1 in /  34371.3 hPa Calm     91 % 0.0 in /  0 mm
17:55 1.8 °F /  -16.8 °C 0.5 °F /  -17.5 °C 1015.1 in /  34371.3 hPa Calm     91 % 0.0 in /  0 mm
18:00 1.8 °F /  -16.8 °C 0.5 °F /  -17.5 °C 1015.1 in /  34371.3 hPa Calm     91 % 0.0 in /  0 mm
18:05 1.7 °F /  -16.8 °C 0.4 °F /  -17.6 °C 1015.1 in /  34371.3 hPa Calm     91 % 0.0 in /  0 mm
18:10 1.7 °F /  -16.8 °C 0.4 °F /  -17.6 °C 1014.1 in /  34337.4 hPa Calm     91 % 0.0 in /  0 mm
18:15 1.7 °F /  -16.8 °C 0.4 °F /  -17.6 °C 1014.1 in /  34337.4 hPa Calm     91 % 0.0 in /  0 mm
18:20 1.6 °F /  -16.9 °C 0.3 °F /  -17.6 °C 1014.1 in /  34337.4 hPa Calm     91 % 0.0 in /  0 mm
18:25 1.6 °F /  -16.9 °C 0.3 °F /  -17.6 °C 1014.1 in /  34337.4 hPa Calm     91 % 0.0 in /  0 mm
18:30 1.6 °F /  -16.9 °C 0.3 °F /  -17.6 °C 1014.1 in /  34337.4 hPa Calm     91 % 0.0 in /  0 mm
18:35 1.6 °F /  -16.9 °C 0.4 °F /  -17.6 °C 1014.1 in /  34337.4 hPa Calm     92 % 0.0 in /  0 mm
18:40 1.5 °F /  -16.9 °C 0.3 °F /  -17.6 °C 1015.1 in /  34371.3 hPa Calm     92 % 0.0 in /  0 mm
18:45 1.5 °F /  -16.9 °C 0.3 °F /  -17.6 °C 1015.1 in /  34371.3 hPa Calm     92 % 0.0 in /  0 mm
18:50 1.5 °F /  -16.9 °C 0.3 °F /  -17.6 °C 1015.1 in /  34371.3 hPa Calm     92 % 0.0 in /  0 mm
18:55 1.4 °F /  -17 °C 0.2 °F /  -17.7 °C 1015.1 in /  34371.3 hPa Calm     92 % 0.0 in /  0 mm
19:00 1.4 °F /  -17 °C 0.2 °F /  -17.7 °C 1015.1 in /  34371.3 hPa Calm     92 % 0.0 in /  0 mm
19:05 1.4 °F /  -17 °C 0.2 °F /  -17.7 °C 1015.1 in /  34371.3 hPa Calm     92 % 0.0 in /  0 mm
19:10 1.4 °F /  -17 °C 0.2 °F /  -17.7 °C 1015.1 in /  34371.3 hPa Calm     92 % 0.0 in /  0 mm
19:15 1.4 °F /  -17 °C 0.2 °F /  -17.7 °C 1015.1 in /  34371.3 hPa Calm     92 % 0.0 in /  0 mm
19:20 1.4 °F /  -17 °C 0.2 °F /  -17.7 °C 1015.1 in /  34371.3 hPa Calm     92 % 0.0 in /  0 mm
19:25 1.4 °F /  -17 °C 0.2 °F /  -17.7 °C 1015.1 in /  34371.3 hPa Calm     92 % 0.0 in /  0 mm
19:30 1.3 °F /  -17.1 °C 0.2 °F /  -17.7 °C 1015.1 in /  34371.3 hPa Calm     92 % 0.0 in /  0 mm
19:35 1.3 °F /  -17.1 °C 0.3 °F /  -17.6 °C 1015.1 in /  34371.3 hPa Calm     93 % 0.0 in /  0 mm
19:40 1.3 °F /  -17.1 °C 0.3 °F /  -17.6 °C 1015.1 in /  34371.3 hPa Calm     93 % 0.0 in /  0 mm
19:45 1.3 °F /  -17.1 °C 0.3 °F /  -17.6 °C 1015.1 in /  34371.3 hPa Calm     93 % 0.0 in /  0 mm
19:50 1.3 °F /  -17.1 °C 0.3 °F /  -17.6 °C 1015.1 in /  34371.3 hPa Calm     93 % 0.0 in /  0 mm
19:55 1.3 °F /  -17.1 °C 0.3 °F /  -17.6 °C 1016.1 in /  34405.1 hPa Calm     93 % 0.0 in /  0 mm
20:01 1.3 °F /  -17.1 °C 0.3 °F /  -17.6 °C 1016.1 in /  34405.1 hPa Calm     93 % 0.0 in /  0 mm
20:06 1.3 °F /  -17.1 °C 0.3 °F /  -17.6 °C 1016.1 in /  34405.1 hPa Calm     93 % 0.0 in /  0 mm
20:11 1.3 °F /  -17.1 °C 0.3 °F /  -17.6 °C 1016.1 in /  34405.1 hPa Calm     93 % 0.0 in /  0 mm
20:16 1.2 °F /  -17.1 °C 0.2 °F /  -17.7 °C 1016.1 in /  34405.1 hPa Calm     93 % 0.0 in /  0 mm
20:21 1.2 °F /  -17.1 °C 0.2 °F /  -17.7 °C 1016.1 in /  34405.1 hPa Calm     93 % 0.0 in /  0 mm
20:26 1.2 °F /  -17.1 °C 0.2 °F /  -17.7 °C 1016.1 in /  34405.1 hPa Calm     93 % 0.0 in /  0 mm
20:31 1.2 °F /  -17.1 °C 0.2 °F /  -17.7 °C 1016.1 in /  34405.1 hPa Calm     93 % 0.0 in /  0 mm
20:36 1.2 °F /  -17.1 °C 0.2 °F /  -17.7 °C 1016.1 in /  34405.1 hPa Calm     93 % 0.0 in /  0 mm
20:41 1.2 °F /  -17.1 °C 0.3 °F /  -17.6 °C 1016.1 in /  34405.1 hPa Calm     94 % 0.0 in /  0 mm
20:46 1.2 °F /  -17.1 °C 0.3 °F /  -17.6 °C 1016.1 in /  34405.1 hPa Calm     94 % 0.0 in /  0 mm
20:51 1.2 °F /  -17.1 °C 0.3 °F /  -17.6 °C 1016.1 in /  34405.1 hPa Calm     94 % 0.0 in /  0 mm
20:56 1.2 °F /  -17.1 °C 0.3 °F /  -17.6 °C 1016.1 in /  34405.1 hPa Calm     94 % 0.0 in /  0 mm
21:01 1.2 °F /  -17.1 °C 0.3 °F /  -17.6 °C 1016.1 in /  34405.1 hPa Calm     94 % 0.0 in /  0 mm
21:06 1.1 °F /  -17.2 °C 0.2 °F /  -17.7 °C 1016.1 in /  34405.1 hPa Calm     94 % 0.0 in /  0 mm
21:11 1.1 °F /  -17.2 °C 0.2 °F /  -17.7 °C 1016.1 in /  34405.1 hPa Calm     94 % 0.0 in /  0 mm
21:16 1.1 °F /  -17.2 °C 0.2 °F /  -17.7 °C 1016.1 in /  34405.1 hPa Calm     94 % 0.0 in /  0 mm
21:21 1.1 °F /  -17.2 °C 0.2 °F /  -17.7 °C 1016.1 in /  34405.1 hPa Calm     94 % 0.0 in /  0 mm
21:26 1.1 °F /  -17.2 °C 0.2 °F /  -17.7 °C 1016.1 in /  34405.1 hPa Calm     94 % 0.0 in /  0 mm
21:31 1.1 °F /  -17.2 °C 0.2 °F /  -17.7 °C 1016.1 in /  34405.1 hPa Calm     94 % 0.0 in /  0 mm
21:36 1.1 °F /  -17.2 °C 0.2 °F /  -17.7 °C 1016.1 in /  34405.1 hPa Calm     94 % 0.0 in /  0 mm
21:41 1.1 °F /  -17.2 °C 0.2 °F /  -17.7 °C 1016.1 in /  34405.1 hPa Calm     94 % 0.0 in /  0 mm
21:46 1.1 °F /  -17.2 °C 0.2 °F /  -17.7 °C 1016.1 in /  34405.1 hPa Calm     94 % 0.0 in /  0 mm
21:51 1.1 °F /  -17.2 °C 0.2 °F /  -17.7 °C 1016.1 in /  34405.1 hPa Calm     94 % 0.0 in /  0 mm
21:56 1.1 °F /  -17.2 °C 0.2 °F /  -17.7 °C 1016.1 in /  34405.1 hPa Calm     94 % 0.0 in /  0 mm
22:01 1.1 °F /  -17.2 °C 0.2 °F /  -17.7 °C 1016.1 in /  34405.1 hPa Calm     94 % 0.0 in /  0 mm
22:06 1.1 °F /  -17.2 °C 0.2 °F /  -17.7 °C 1016.1 in /  34405.1 hPa Calm     94 % 0.0 in /  0 mm
22:11 1.1 °F /  -17.2 °C 0.4 °F /  -17.6 °C 1016.1 in /  34405.1 hPa Calm     95 % 0.0 in /  0 mm
22:16 1.1 °F /  -17.2 °C 0.4 °F /  -17.6 °C 1016.1 in /  34405.1 hPa Calm     95 % 0.0 in /  0 mm
22:21 1.1 °F /  -17.2 °C 0.4 °F /  -17.6 °C 1016.1 in /  34405.1 hPa Calm     95 % 0.0 in /  0 mm
22:26 1.1 °F /  -17.2 °C 0.4 °F /  -17.6 °C 1016.1 in /  34405.1 hPa Calm     95 % 0.0 in /  0 mm
22:31 1.1 °F /  -17.2 °C 0.4 °F /  -17.6 °C 1016.1 in /  34405.1 hPa Calm     95 % 0.0 in /  0 mm
22:36 1.0 °F /  -17.2 °C 0.3 °F /  -17.6 °C 1016.1 in /  34405.1 hPa Calm     95 % 0.0 in /  0 mm
22:41 1.0 °F /  -17.2 °C 0.3 °F /  -17.6 °C 1016.1 in /  34405.1 hPa Calm     95 % 0.0 in /  0 mm
22:46 1.0 °F /  -17.2 °C 0.3 °F /  -17.6 °C 1016.1 in /  34405.1 hPa Calm     95 % 0.0 in /  0 mm
22:51 1.0 °F /  -17.2 °C 0.3 °F /  -17.6 °C 1016.1 in /  34405.1 hPa Calm     95 % 0.0 in /  0 mm
22:56 1.0 °F /  -17.2 °C 0.3 °F /  -17.6 °C 1016.1 in /  34405.1 hPa Calm     95 % 0.0 in /  0 mm
23:01 1.0 °F /  -17.2 °C 0.3 °F /  -17.6 °C 1016.1 in /  34405.1 hPa Calm     95 % 0.0 in /  0 mm
23:06 1.0 °F /  -17.2 °C 0.3 °F /  -17.6 °C 1016.1 in /  34405.1 hPa Calm     95 % 0.0 in /  0 mm
23:11 1.0 °F /  -17.2 °C 0.3 °F /  -17.6 °C 1016.1 in /  34405.1 hPa Calm     95 % 0.0 in /  0 mm
23:16 1.0 °F /  -17.2 °C 0.3 °F /  -17.6 °C 1016.1 in /  34405.1 hPa Calm   3.2 mph /  5.1 km/h 95 % 0.0 in /  0 mm
23:21 1.0 °F /  -17.2 °C 0.3 °F /  -17.6 °C 1016.1 in /  34405.1 hPa SW 0.6 mph /  1 km/h 3.2 mph /  5.1 km/h 95 % 0.0 in /  0 mm
23:26 1.0 °F /  -17.2 °C 0.3 °F /  -17.6 °C 1016.1 in /  34405.1 hPa SW 0.6 mph /  1 km/h 2.6 mph /  4.2 km/h 95 % 0.0 in /  0 mm
23:31 1.0 °F /  -17.2 °C 0.3 °F /  -17.6 °C 1016.1 in /  34405.1 hPa Calm     95 % 0.0 in /  0 mm
23:36 1.0 °F /  -17.2 °C 0.3 °F /  -17.6 °C 1016.1 in /  34405.1 hPa Calm     95 % 0.0 in /  0 mm
23:41 1.0 °F /  -17.2 °C 0.3 °F /  -17.6 °C 1016.1 in /  34405.1 hPa Calm     95 % 0.0 in /  0 mm
23:46 1.0 °F /  -17.2 °C 0.3 °F /  -17.6 °C 1016.1 in /  34405.1 hPa Calm     95 % 0.0 in /  0 mm
23:51 1.0 °F /  -17.2 °C 0.3 °F /  -17.6 °C 1016.1 in /  34405.1 hPa Calm     95 % 0.0 in /  0 mm
23:56 1.0 °F /  -17.2 °C 0.3 °F /  -17.6 °C 1016.1 in /  34405.1 hPa Calm     95 % 0.0 in /  0 mm
Vremenska postaja Senovo
Podatki zbrani iz Weather Underground - 3 mb

Script developed by  Jim McMurry - jmcmurry@mwt.net Adapted for the template by  Wim van der Kuil - Leuven-Template.eu

Vremenski podatki so objavljeni na:

European Weather Network

WeatherCloud

Weather Underground

AWEKAS

HAMweather, WeatherForYou, PWS Weather

MapView

Geostik

Slovenia weather network

Oprema, ki se uporablja:

Vremenski program
Cumulus

Vremenski server
Asus

Cumulus

Asus